sensor_id;sensor_type;location;lat;lon;timestamp;pressure;altitude;pressure_sealevel;temperature
80246;BMP280;69558;39.208;-77.226;2023-12-04T00:02:00;99124.66;;;17.94
80246;BMP280;69558;39.208;-77.226;2023-12-04T00:04:26;99151.69;;;17.94
80246;BMP280;69558;39.208;-77.226;2023-12-04T00:06:52;99143.00;;;17.94
80246;BMP280;69558;39.208;-77.226;2023-12-04T00:09:19;99156.75;;;17.96
80246;BMP280;69558;39.208;-77.226;2023-12-04T00:11:45;99154.31;;;17.94
80246;BMP280;69558;39.208;-77.226;2023-12-04T00:14:11;99147.50;;;17.93
80246;BMP280;69558;39.208;-77.226;2023-12-04T00:16:37;99155.94;;;17.95
80246;BMP280;69558;39.208;-77.226;2023-12-04T00:19:02;99171.47;;;17.97
80246;BMP280;69558;39.208;-77.226;2023-12-04T00:21:28;99170.69;;;17.96
80246;BMP280;69558;39.208;-77.226;2023-12-04T00:23:54;99164.63;;;17.96
80246;BMP280;69558;39.208;-77.226;2023-12-04T00:26:20;99168.88;;;17.97
80246;BMP280;69558;39.208;-77.226;2023-12-04T00:28:46;99168.69;;;17.92
80246;BMP280;69558;39.208;-77.226;2023-12-04T00:31:12;99173.31;;;17.96
80246;BMP280;69558;39.208;-77.226;2023-12-04T00:33:37;99179.34;;;17.97
80246;BMP280;69558;39.208;-77.226;2023-12-04T00:36:04;99159.81;;;17.93
80246;BMP280;69558;39.208;-77.226;2023-12-04T00:38:30;99170.69;;;17.96
80246;BMP280;69558;39.208;-77.226;2023-12-04T00:40:56;99176.72;;;17.97
80246;BMP280;69558;39.208;-77.226;2023-12-04T00:43:22;99181.34;;;17.95
80246;BMP280;69558;39.208;-77.226;2023-12-04T00:45:48;99204.56;;;17.98
80246;BMP280;69558;39.208;-77.226;2023-12-04T00:48:13;99220.69;;;17.95
80246;BMP280;69558;39.208;-77.226;2023-12-04T00:50:39;99223.56;;;17.93
80246;BMP280;69558;39.208;-77.226;2023-12-04T00:53:05;99223.94;;;17.97
80246;BMP280;69558;39.208;-77.226;2023-12-04T00:55:31;99217.91;;;17.96
80246;BMP280;69558;39.208;-77.226;2023-12-04T00:57:57;99215.28;;;17.96
80246;BMP280;69558;39.208;-77.226;2023-12-04T01:00:23;99203.34;;;17.94
80246;BMP280;69558;39.208;-77.226;2023-12-04T01:02:49;99202.16;;;17.96
80246;BMP280;69558;39.208;-77.226;2023-12-04T01:05:15;99198.91;;;17.94
80246;BMP280;69558;39.208;-77.226;2023-12-04T01:07:42;99184.22;;;17.93
80246;BMP280;69558;39.208;-77.226;2023-12-04T01:10:08;99189.03;;;17.96
80246;BMP280;69558;39.208;-77.226;2023-12-04T01:12:34;99183.78;;;17.96
80246;BMP280;69558;39.208;-77.226;2023-12-04T01:15:01;99196.91;;;17.96
80246;BMP280;69558;39.208;-77.226;2023-12-04T01:17:28;99221.53;;;17.95
80246;BMP280;69558;39.208;-77.226;2023-12-04T01:19:53;99218.09;;;17.95
80246;BMP280;69558;39.208;-77.226;2023-12-04T01:22:19;99202.78;;;17.92
80246;BMP280;69558;39.208;-77.226;2023-12-04T01:24:45;99208.41;;;17.95
80246;BMP280;69558;39.208;-77.226;2023-12-04T01:27:12;99194.47;;;17.95
80246;BMP280;69558;39.208;-77.226;2023-12-04T01:29:38;99196.53;;;17.93
80246;BMP280;69558;39.208;-77.226;2023-12-04T01:32:04;99212.03;;;17.94
80246;BMP280;69558;39.208;-77.226;2023-12-04T01:34:30;99207.03;;;17.93
80246;BMP280;69558;39.208;-77.226;2023-12-04T01:36:56;99209.66;;;17.93
80246;BMP280;69558;39.208;-77.226;2023-12-04T01:39:22;99209.22;;;17.96
80246;BMP280;69558;39.208;-77.226;2023-12-04T01:41:48;99199.16;;;17.93
80246;BMP280;69558;39.208;-77.226;2023-12-04T01:44:14;99214.09;;;17.92
80246;BMP280;69558;39.208;-77.226;2023-12-04T01:46:40;99207.59;;;17.95
80246;BMP280;69558;39.208;-77.226;2023-12-04T01:49:06;99216.28;;;17.95
80246;BMP280;69558;39.208;-77.226;2023-12-04T01:51:32;99201.34;;;17.96
80246;BMP280;69558;39.208;-77.226;2023-12-04T01:53:59;99201.34;;;17.96
80246;BMP280;69558;39.208;-77.226;2023-12-04T01:56:27;99201.78;;;17.93
80246;BMP280;69558;39.208;-77.226;2023-12-04T01:58:53;99206.59;;;17.96
80246;BMP280;69558;39.208;-77.226;2023-12-04T02:01:19;99210.03;;;17.96
80246;BMP280;69558;39.208;-77.226;2023-12-04T02:03:45;99211.84;;;17.96
80246;BMP280;69558;39.208;-77.226;2023-12-04T02:06:12;99204.41;;;17.93
80246;BMP280;69558;39.208;-77.226;2023-12-04T02:08:40;99206.78;;;17.94
80246;BMP280;69558;39.208;-77.226;2023-12-04T02:11:07;99208.22;;;17.97
80246;BMP280;69558;39.208;-77.226;2023-12-04T02:13:33;99206.16;;;17.99
80246;BMP280;69558;39.208;-77.226;2023-12-04T02:16:02;99202.72;;;17.98
80246;BMP280;69558;39.208;-77.226;2023-12-04T02:18:30;99202.97;;;17.97
80246;BMP280;69558;39.208;-77.226;2023-12-04T02:20:57;99206.16;;;17.99
80246;BMP280;69558;39.208;-77.226;2023-12-04T02:23:22;99201.94;;;17.98
80246;BMP280;69558;39.208;-77.226;2023-12-04T02:25:49;99205.59;;;17.97
80246;BMP280;69558;39.208;-77.226;2023-12-04T02:28:15;99207.59;;;17.95
80246;BMP280;69558;39.208;-77.226;2023-12-04T02:30:43;99216.28;;;17.95
80246;BMP280;69558;39.208;-77.226;2023-12-04T02:33:11;99218.72;;;17.97
80246;BMP280;69558;39.208;-77.226;2023-12-04T02:35:37;99208.59;;;17.94
80246;BMP280;69558;39.208;-77.226;2023-12-04T02:38:05;99202.56;;;17.93
80246;BMP280;69558;39.208;-77.226;2023-12-04T02:40:31;99208.03;;;17.92
80246;BMP280;69558;39.208;-77.226;2023-12-04T02:42:56;99204.16;;;17.94
80246;BMP280;69558;39.208;-77.226;2023-12-04T02:45:23;99190.06;;;17.89
80246;BMP280;69558;39.208;-77.226;2023-12-04T02:47:49;99195.13;;;17.90
80246;BMP280;69558;39.208;-77.226;2023-12-04T02:50:15;99203.59;;;17.92
80246;BMP280;69558;39.208;-77.226;2023-12-04T02:52:41;99190.47;;;17.92
80246;BMP280;69558;39.208;-77.226;2023-12-04T02:55:07;99203.16;;;17.95
80246;BMP280;69558;39.208;-77.226;2023-12-04T02:57:33;99204.97;;;17.95
80246;BMP280;69558;39.208;-77.226;2023-12-04T02:59:59;99215.47;;;17.95
80246;BMP280;69558;39.208;-77.226;2023-12-04T03:02:25;99210.66;;;17.92
80246;BMP280;69558;39.208;-77.226;2023-12-04T03:04:50;99205.19;;;17.93
80246;BMP280;69558;39.208;-77.226;2023-12-04T03:07:16;99218.72;;;17.97
80246;BMP280;69558;39.208;-77.226;2023-12-04T03:09:45;99217.91;;;17.96
80246;BMP280;69558;39.208;-77.226;2023-12-04T03:12:11;99222.94;;;17.98
80246;BMP280;69558;39.208;-77.226;2023-12-04T03:14:37;99234.22;;;17.98
80246;BMP280;69558;39.208;-77.226;2023-12-04T03:17:04;99228.22;;;17.91
80246;BMP280;69558;39.208;-77.226;2023-12-04T03:19:30;99231.41;;;18.00
80246;BMP280;69558;39.208;-77.226;2023-12-04T03:21:56;99244.53;;;18.00
80246;BMP280;69558;39.208;-77.226;2023-12-04T03:24:22;99240.25;;;17.99
80246;BMP280;69558;39.208;-77.226;2023-12-04T03:26:48;99245.50;;;17.99
80246;BMP280;69558;39.208;-77.226;2023-12-04T03:29:14;99251.00;;;17.97
80246;BMP280;69558;39.208;-77.226;2023-12-04T03:31:39;99257.44;;;17.95
80246;BMP280;69558;39.208;-77.226;2023-12-04T03:34:06;99271.97;;;17.97
80246;BMP280;69558;39.208;-77.226;2023-12-04T03:36:31;99266.31;;;17.94
80246;BMP280;69558;39.208;-77.226;2023-12-04T03:38:57;99271.38;;;17.95
80246;BMP280;69558;39.208;-77.226;2023-12-04T03:41:23;99279.03;;;17.97
80246;BMP280;69558;39.208;-77.226;2023-12-04T03:43:49;99277.44;;;17.96
80246;BMP280;69558;39.208;-77.226;2023-12-04T03:46:15;99286.50;;;18.00
80246;BMP280;69558;39.208;-77.226;2023-12-04T03:48:41;99275.63;;;17.96
80246;BMP280;69558;39.208;-77.226;2023-12-04T03:51:07;99288.53;;;17.98
80246;BMP280;69558;39.208;-77.226;2023-12-04T03:53:33;99291.16;;;17.98
80246;BMP280;69558;39.208;-77.226;2023-12-04T03:56:00;99293.53;;;17.99
80246;BMP280;69558;39.208;-77.226;2023-12-04T03:58:26;99304.88;;;18.00
80246;BMP280;69558;39.208;-77.226;2023-12-04T04:00:51;99318.78;;;18.00
80246;BMP280;69558;39.208;-77.226;2023-12-04T04:03:17;99307.50;;;18.00
80246;BMP280;69558;39.208;-77.226;2023-12-04T04:05:43;99314.53;;;17.99
80246;BMP280;69558;39.208;-77.226;2023-12-04T04:08:09;99316.34;;;17.99
80246;BMP280;69558;39.208;-77.226;2023-12-04T04:10:35;99315.16;;;17.95
80246;BMP280;69558;39.208;-77.226;2023-12-04T04:13:00;99313.38;;;17.95
80246;BMP280;69558;39.208;-77.226;2023-12-04T04:15:27;99330.31;;;17.93
80246;BMP280;69558;39.208;-77.226;2023-12-04T04:17:53;99319.22;;;17.97
80246;BMP280;69558;39.208;-77.226;2023-12-04T04:20:20;99316.59;;;17.97
80246;BMP280;69558;39.208;-77.226;2023-12-04T04:22:48;99316.34;;;17.99
80246;BMP280;69558;39.208;-77.226;2023-12-04T04:25:15;99327.06;;;17.97
80246;BMP280;69558;39.208;-77.226;2023-12-04T04:27:41;99327.66;;;17.99
80246;BMP280;69558;39.208;-77.226;2023-12-04T04:30:07;99344.41;;;17.98
80246;BMP280;69558;39.208;-77.226;2023-12-04T04:32:34;99352.09;;;18.00
80246;BMP280;69558;39.208;-77.226;2023-12-04T04:35:00;99356.16;;;17.96
80246;BMP280;69558;39.208;-77.226;2023-12-04T04:37:25;99367.84;;;18.00
80246;BMP280;69558;39.208;-77.226;2023-12-04T04:39:51;99380.34;;;17.98
80246;BMP280;69558;39.208;-77.226;2023-12-04T04:42:17;99373.31;;;17.92
80246;BMP280;69558;39.208;-77.226;2023-12-04T04:44:43;99390.63;;;17.99
80246;BMP280;69558;39.208;-77.226;2023-12-04T04:47:09;99388.22;;;17.98
80246;BMP280;69558;39.208;-77.226;2023-12-04T04:49:35;99379.31;;;17.99
80246;BMP280;69558;39.208;-77.226;2023-12-04T04:52:00;99398.31;;;18.01
80246;BMP280;69558;39.208;-77.226;2023-12-04T04:54:26;99388.63;;;18.01
80246;BMP280;69558;39.208;-77.226;2023-12-04T04:56:53;99379.31;;;17.99
80246;BMP280;69558;39.208;-77.226;2023-12-04T04:59:19;99367.44;;;17.96
80246;BMP280;69558;39.208;-77.226;2023-12-04T05:01:45;99374.06;;;17.99
80246;BMP280;69558;39.208;-77.226;2023-12-04T05:04:11;99365.22;;;18.00
80246;BMP280;69558;39.208;-77.226;2023-12-04T05:06:37;99358.31;;;17.99
80246;BMP280;69558;39.208;-77.226;2023-12-04T05:09:03;99363.22;;;17.95
80246;BMP280;69558;39.208;-77.226;2023-12-04T05:11:30;99369.88;;;17.98
80246;BMP280;69558;39.208;-77.226;2023-12-04T05:13:55;99370.25;;;17.95
80246;BMP280;69558;39.208;-77.226;2023-12-04T05:16:21;99374.31;;;17.97
80246;BMP280;69558;39.208;-77.226;2023-12-04T05:18:47;99379.75;;;17.96
80246;BMP280;69558;39.208;-77.226;2023-12-04T05:21:13;99364.19;;;17.94
80246;BMP280;69558;39.208;-77.226;2023-12-04T05:23:39;99382.56;;;17.94
80246;BMP280;69558;39.208;-77.226;2023-12-04T05:26:06;99385.38;;;17.99
80246;BMP280;69558;39.208;-77.226;2023-12-04T05:28:32;99390.03;;;17.97
80246;BMP280;69558;39.208;-77.226;2023-12-04T05:30:58;99376.69;;;17.99
80246;BMP280;69558;39.208;-77.226;2023-12-04T05:33:24;99384.38;;;18.00
80246;BMP280;69558;39.208;-77.226;2023-12-04T05:35:50;99388.00;;;17.99
80246;BMP280;69558;39.208;-77.226;2023-12-04T05:38:19;99384.19;;;17.95
80246;BMP280;69558;39.208;-77.226;2023-12-04T05:40:45;99396.09;;;17.98
80246;BMP280;69558;39.208;-77.226;2023-12-04T05:43:11;99393.69;;;17.96
80246;BMP280;69558;39.208;-77.226;2023-12-04T05:45:38;99390.66;;;17.93
80246;BMP280;69558;39.208;-77.226;2023-12-04T05:48:05;99399.72;;;17.97
80246;BMP280;69558;39.208;-77.226;2023-12-04T05:50:30;99400.53;;;17.97
80246;BMP280;69558;39.208;-77.226;2023-12-04T05:52:56;99411.84;;;17.98
80246;BMP280;69558;39.208;-77.226;2023-12-04T05:55:22;99411.25;;;17.96
80246;BMP280;69558;39.208;-77.226;2023-12-04T05:57:48;99415.25;;;17.98
80246;BMP280;69558;39.208;-77.226;2023-12-04T06:00:14;99415.84;;;17.94
80246;BMP280;69558;39.208;-77.226;2023-12-04T06:02:42;99429.16;;;17.99
80246;BMP280;69558;39.208;-77.226;2023-12-04T06:05:09;99419.09;;;17.96
80246;BMP280;69558;39.208;-77.226;2023-12-04T06:07:36;99420.09;;;17.95
80246;BMP280;69558;39.208;-77.226;2023-12-04T06:10:03;99416.84;;;17.99
80246;BMP280;69558;39.208;-77.226;2023-12-04T06:12:32;99403.97;;;17.91
80246;BMP280;69558;39.208;-77.226;2023-12-04T06:14:58;99430.81;;;18.00
80246;BMP280;69558;39.208;-77.226;2023-12-04T06:17:25;99427.19;;;18.01
80246;BMP280;69558;39.208;-77.226;2023-12-04T06:19:51;99431.63;;;18.00
80246;BMP280;69558;39.208;-77.226;2023-12-04T06:22:17;99435.22;;;17.99
80246;BMP280;69558;39.208;-77.226;2023-12-04T06:24:46;99436.22;;;17.98
80246;BMP280;69558;39.208;-77.226;2023-12-04T06:27:16;99427.34;;;17.99
80246;BMP280;69558;39.208;-77.226;2023-12-04T06:29:45;99429.59;;;17.96
80246;BMP280;69558;39.208;-77.226;2023-12-04T06:32:11;99444.09;;;17.98
80246;BMP280;69558;39.208;-77.226;2023-12-04T06:34:38;99444.34;;;17.97
80246;BMP280;69558;39.208;-77.226;2023-12-04T06:37:09;99450.38;;;17.97
80246;BMP280;69558;39.208;-77.226;2023-12-04T06:39:37;99447.78;;;17.97
80246;BMP280;69558;39.208;-77.226;2023-12-04T06:42:07;99455.63;;;17.97
80246;BMP280;69558;39.208;-77.226;2023-12-04T06:44:34;99459.28;;;17.96
80246;BMP280;69558;39.208;-77.226;2023-12-04T06:47:00;99459.28;;;17.96
80246;BMP280;69558;39.208;-77.226;2023-12-04T06:49:32;99464.53;;;17.96
80246;BMP280;69558;39.208;-77.226;2023-12-04T06:51:59;99465.69;;;17.94
80246;BMP280;69558;39.208;-77.226;2023-12-04T06:54:25;99462.91;;;17.95
80246;BMP280;69558;39.208;-77.226;2023-12-04T06:56:52;99458.63;;;17.94
80246;BMP280;69558;39.208;-77.226;2023-12-04T06:59:18;99456.84;;;17.88
80246;BMP280;69558;39.208;-77.226;2023-12-04T07:01:45;99457.47;;;17.90
80246;BMP280;69558;39.208;-77.226;2023-12-04T07:04:11;99467.56;;;17.93
80246;BMP280;69558;39.208;-77.226;2023-12-04T07:06:40;99474.38;;;17.94
80246;BMP280;69558;39.208;-77.226;2023-12-04T07:09:06;99467.94;;;17.90
80246;BMP280;69558;39.208;-77.226;2023-12-04T07:11:35;99465.31;;;17.90
80246;BMP280;69558;39.208;-77.226;2023-12-04T07:14:01;99462.31;;;17.87
80246;BMP280;69558;39.208;-77.226;2023-12-04T07:16:27;99469.56;;;17.91
80246;BMP280;69558;39.208;-77.226;2023-12-04T07:18:53;99457.47;;;17.90
80246;BMP280;69558;39.208;-77.226;2023-12-04T07:21:19;99463.50;;;17.91
80246;BMP280;69558;39.208;-77.226;2023-12-04T07:23:45;99478.44;;;17.90
80246;BMP280;69558;39.208;-77.226;2023-12-04T07:26:11;99485.31;;;17.91
80246;BMP280;69558;39.208;-77.226;2023-12-04T07:28:37;99476.63;;;17.91
80246;BMP280;69558;39.208;-77.226;2023-12-04T07:31:03;99462.09;;;17.88
80246;BMP280;69558;39.208;-77.226;2023-12-04T07:33:30;99456.03;;;17.88
80246;BMP280;69558;39.208;-77.226;2023-12-04T07:35:56;99473.81;;;17.92
80246;BMP280;69558;39.208;-77.226;2023-12-04T07:38:22;99465.13;;;17.92
80246;BMP280;69558;39.208;-77.226;2023-12-04T07:40:48;99477.44;;;17.91
80246;BMP280;69558;39.208;-77.226;2023-12-04T07:43:14;99484.50;;;17.91
80246;BMP280;69558;39.208;-77.226;2023-12-04T07:45:40;99488.34;;;17.88
80246;BMP280;69558;39.208;-77.226;2023-12-04T07:48:06;99477.59;;;17.90
80246;BMP280;69558;39.208;-77.226;2023-12-04T07:50:32;99482.03;;;17.89
80246;BMP280;69558;39.208;-77.226;2023-12-04T07:52:59;99478.63;;;17.89
80246;BMP280;69558;39.208;-77.226;2023-12-04T07:55:25;99476.00;;;17.89
80246;BMP280;69558;39.208;-77.226;2023-12-04T07:57:51;99469.97;;;17.88
80246;BMP280;69558;39.208;-77.226;2023-12-04T08:00:17;99483.88;;;17.89
80246;BMP280;69558;39.208;-77.226;2023-12-04T08:02:48;99482.47;;;17.86
80246;BMP280;69558;39.208;-77.226;2023-12-04T08:05:14;99476.59;;;17.84
80246;BMP280;69558;39.208;-77.226;2023-12-04T08:07:41;99482.66;;;17.85
80246;BMP280;69558;39.208;-77.226;2023-12-04T08:10:07;99489.53;;;17.86
80246;BMP280;69558;39.208;-77.226;2023-12-04T08:12:34;99484.28;;;17.86
80246;BMP280;69558;39.208;-77.226;2023-12-04T08:15:00;99483.25;;;17.80
80246;BMP280;69558;39.208;-77.226;2023-12-04T08:17:27;99489.72;;;17.84
80246;BMP280;69558;39.208;-77.226;2023-12-04T08:19:53;99482.06;;;17.83
80246;BMP280;69558;39.208;-77.226;2023-12-04T08:22:20;99475.38;;;17.80
80246;BMP280;69558;39.208;-77.226;2023-12-04T08:24:47;99502.03;;;17.83
80246;BMP280;69558;39.208;-77.226;2023-12-04T08:27:13;99500.44;;;17.83
80246;BMP280;69558;39.208;-77.226;2023-12-04T08:29:39;99504.06;;;17.81
80246;BMP280;69558;39.208;-77.226;2023-12-04T08:32:06;99509.88;;;17.83
80246;BMP280;69558;39.208;-77.226;2023-12-04T08:34:32;99501.25;;;17.83
80246;BMP280;69558;39.208;-77.226;2023-12-04T08:36:57;99511.75;;;17.83
80246;BMP280;69558;39.208;-77.226;2023-12-04T08:39:23;99513.56;;;17.83
80246;BMP280;69558;39.208;-77.226;2023-12-04T08:41:49;99510.94;;;17.83
80246;BMP280;69558;39.208;-77.226;2023-12-04T08:44:15;99499.63;;;17.82
80246;BMP280;69558;39.208;-77.226;2023-12-04T08:46:42;99486.72;;;17.80
80246;BMP280;69558;39.208;-77.226;2023-12-04T08:49:08;99483.09;;;17.81
80246;BMP280;69558;39.208;-77.226;2023-12-04T08:51:34;99481.28;;;17.82
80246;BMP280;69558;39.208;-77.226;2023-12-04T08:54:00;99487.53;;;17.81
80246;BMP280;69558;39.208;-77.226;2023-12-04T08:56:26;99487.53;;;17.81
80246;BMP280;69558;39.208;-77.226;2023-12-04T08:58:52;99478.22;;;17.78
80246;BMP280;69558;39.208;-77.226;2023-12-04T09:01:18;99481.63;;;17.79
80246;BMP280;69558;39.208;-77.226;2023-12-04T09:03:44;99481.88;;;17.77
80246;BMP280;69558;39.208;-77.226;2023-12-04T09:06:09;99486.69;;;17.74
80246;BMP280;69558;39.208;-77.226;2023-12-04T09:08:35;99485.66;;;17.75
80246;BMP280;69558;39.208;-77.226;2023-12-04T09:11:01;99483.03;;;17.75
80246;BMP280;69558;39.208;-77.226;2023-12-04T09:13:29;99469.56;;;17.71
80246;BMP280;69558;39.208;-77.226;2023-12-04T09:15:56;99462.66;;;17.70
80246;BMP280;69558;39.208;-77.226;2023-12-04T09:18:22;99463.28;;;17.66
80246;BMP280;69558;39.208;-77.226;2023-12-04T09:20:47;99481.66;;;17.72
80246;BMP280;69558;39.208;-77.226;2023-12-04T09:23:13;99477.00;;;17.74
80246;BMP280;69558;39.208;-77.226;2023-12-04T09:25:39;99478.41;;;17.70
80246;BMP280;69558;39.208;-77.226;2023-12-04T09:28:05;99484.88;;;17.74
80246;BMP280;69558;39.208;-77.226;2023-12-04T09:30:31;99489.31;;;17.74
80246;BMP280;69558;39.208;-77.226;2023-12-04T09:32:57;99484.28;;;17.72
80246;BMP280;69558;39.208;-77.226;2023-12-04T09:35:23;99486.50;;;17.69
80246;BMP280;69558;39.208;-77.226;2023-12-04T09:37:49;99491.34;;;17.72
80246;BMP280;69558;39.208;-77.226;2023-12-04T09:40:16;99480.00;;;17.65
80246;BMP280;69558;39.208;-77.226;2023-12-04T09:42:42;99492.16;;;17.72
80246;BMP280;69558;39.208;-77.226;2023-12-04T09:45:08;99484.47;;;17.71
80246;BMP280;69558;39.208;-77.226;2023-12-04T09:47:35;99472.59;;;17.68
80246;BMP280;69558;39.208;-77.226;2023-12-04T09:50:02;99471.53;;;17.69
80246;BMP280;69558;39.208;-77.226;2023-12-04T09:52:28;99482.84;;;17.70
80246;BMP280;69558;39.208;-77.226;2023-12-04T09:54:54;99467.34;;;17.68
80246;BMP280;69558;39.208;-77.226;2023-12-04T09:57:22;99455.41;;;17.66
80246;BMP280;69558;39.208;-77.226;2023-12-04T09:59:51;99458.44;;;17.63
80246;BMP280;69558;39.208;-77.226;2023-12-04T10:02:17;99463.69;;;17.63
80246;BMP280;69558;39.208;-77.226;2023-12-04T10:04:44;99447.31;;;17.61
80246;BMP280;69558;39.208;-77.226;2023-12-04T10:07:10;99454.81;;;17.64
80246;BMP280;69558;39.208;-77.226;2023-12-04T10:09:36;99448.97;;;17.62
80246;BMP280;69558;39.208;-77.226;2023-12-04T10:12:02;99452.97;;;17.64
80246;BMP280;69558;39.208;-77.226;2023-12-04T10:14:28;99461.88;;;17.63
80246;BMP280;69558;39.208;-77.226;2023-12-04T10:16:55;99453.22;;;17.63
80246;BMP280;69558;39.208;-77.226;2023-12-04T10:19:23;99456.63;;;17.63
80246;BMP280;69558;39.208;-77.226;2023-12-04T10:21:52;99447.16;;;17.62
80246;BMP280;69558;39.208;-77.226;2023-12-04T10:26:58;99459.03;;;17.65
80246;BMP280;69558;39.208;-77.226;2023-12-04T10:29:41;99465.09;;;17.65
80246;BMP280;69558;39.208;-77.226;2023-12-04T10:32:08;99473.38;;;17.62
80246;BMP280;69558;39.208;-77.226;2023-12-04T10:34:34;99473.19;;;17.64
80246;BMP280;69558;39.208;-77.226;2023-12-04T10:37:02;99476.56;;;17.64
80246;BMP280;69558;39.208;-77.226;2023-12-04T10:39:29;99473.19;;;17.64
80246;BMP280;69558;39.208;-77.226;2023-12-04T10:42:02;99491.13;;;17.67
80246;BMP280;69558;39.208;-77.226;2023-12-04T10:44:30;99506.06;;;17.66
80246;BMP280;69558;39.208;-77.226;2023-12-04T10:46:56;99517.75;;;17.64
80246;BMP280;69558;39.208;-77.226;2023-12-04T10:49:27;99522.59;;;17.67
80246;BMP280;69558;39.208;-77.226;2023-12-04T10:51:56;99535.09;;;17.65
80246;BMP280;69558;39.208;-77.226;2023-12-04T10:54:27;99528.44;;;17.62
80246;BMP280;69558;39.208;-77.226;2023-12-04T10:56:58;99511.50;;;17.58
80246;BMP280;69558;39.208;-77.226;2023-12-04T10:59:28;99531.44;;;17.66
80246;BMP280;69558;39.208;-77.226;2023-12-04T11:02:00;99528.03;;;17.65
80246;BMP280;69558;39.208;-77.226;2023-12-04T11:04:31;99525.63;;;17.64
80246;BMP280;69558;39.208;-77.226;2023-12-04T11:06:59;99527.03;;;17.66
80246;BMP280;69558;39.208;-77.226;2023-12-04T11:09:31;99525.22;;;17.67
80246;BMP280;69558;39.208;-77.226;2023-12-04T11:12:03;99526.41;;;17.64
80246;BMP280;69558;39.208;-77.226;2023-12-04T11:14:39;99513.53;;;17.63
80246;BMP280;69558;39.208;-77.226;2023-12-04T11:17:10;99516.16;;;17.63
80246;BMP280;69558;39.208;-77.226;2023-12-04T11:19:52;99520.38;;;17.64
80246;BMP280;69558;39.208;-77.226;2023-12-04T11:22:20;99525.81;;;17.62
80246;BMP280;69558;39.208;-77.226;2023-12-04T11:24:51;99527.63;;;17.62
80246;BMP280;69558;39.208;-77.226;2023-12-04T11:27:17;99531.88;;;17.63
80246;BMP280;69558;39.208;-77.226;2023-12-04T11:29:45;99544.75;;;17.64
80246;BMP280;69558;39.208;-77.226;2023-12-04T11:32:15;99541.38;;;17.64
80246;BMP280;69558;39.208;-77.226;2023-12-04T11:34:54;99549.00;;;17.65
80246;BMP280;69558;39.208;-77.226;2023-12-04T11:37:22;99552.06;;;17.62
80246;BMP280;69558;39.208;-77.226;2023-12-04T11:39:53;99557.28;;;17.62
80246;BMP280;69558;39.208;-77.226;2023-12-04T11:42:22;99555.47;;;17.63
80246;BMP280;69558;39.208;-77.226;2023-12-04T11:44:49;99551.03;;;17.63
80246;BMP280;69558;39.208;-77.226;2023-12-04T11:47:15;99554.69;;;17.62
80246;BMP280;69558;39.208;-77.226;2023-12-04T11:49:42;99550.25;;;17.63
80246;BMP280;69558;39.208;-77.226;2023-12-04T11:52:08;99548.63;;;17.62
80246;BMP280;69558;39.208;-77.226;2023-12-04T11:55:00;99566.78;;;17.63
80246;BMP280;69558;39.208;-77.226;2023-12-04T11:57:37;99574.03;;;17.61
80246;BMP280;69558;39.208;-77.226;2023-12-04T12:00:19;99574.03;;;17.61
80246;BMP280;69558;39.208;-77.226;2023-12-04T12:05:22;99595.00;;;17.61
80246;BMP280;69558;39.208;-77.226;2023-12-04T12:07:49;99587.31;;;17.60
80246;BMP280;69558;39.208;-77.226;2023-12-04T12:10:16;99595.19;;;17.60
80246;BMP280;69558;39.208;-77.226;2023-12-04T12:12:45;99590.97;;;17.59
80246;BMP280;69558;39.208;-77.226;2023-12-04T12:15:13;99569.56;;;17.55
80246;BMP280;69558;39.208;-77.226;2023-12-04T12:17:40;99565.91;;;17.56
80246;BMP280;69558;39.208;-77.226;2023-12-04T12:22:34;99576.25;;;17.58
80246;BMP280;69558;39.208;-77.226;2023-12-04T12:25:00;99585.72;;;17.59
80246;BMP280;69558;39.208;-77.226;2023-12-04T12:27:27;99586.72;;;17.58
80246;BMP280;69558;39.208;-77.226;2023-12-04T12:29:53;99590.97;;;17.59
80246;BMP280;69558;39.208;-77.226;2023-12-04T12:32:20;99582.66;;;17.55
80246;BMP280;69558;39.208;-77.226;2023-12-04T12:34:46;99575.03;;;17.54
80246;BMP280;69558;39.208;-77.226;2023-12-04T12:37:12;99567.16;;;17.54
80246;BMP280;69558;39.208;-77.226;2023-12-04T12:39:39;99563.94;;;17.58
80246;BMP280;69558;39.208;-77.226;2023-12-04T12:42:05;99557.69;;;17.53
80246;BMP280;69558;39.208;-77.226;2023-12-04T12:44:38;99575.25;;;17.59
80246;BMP280;69558;39.208;-77.226;2023-12-04T12:47:08;99583.09;;;17.59
80246;BMP280;69558;39.208;-77.226;2023-12-04T12:49:34;99588.53;;;17.57
80246;BMP280;69558;39.208;-77.226;2023-12-04T12:52:02;99597.38;;;17.56
80246;BMP280;69558;39.208;-77.226;2023-12-04T12:54:28;99601.47;;;17.59
80246;BMP280;69558;39.208;-77.226;2023-12-04T12:57:01;99613.19;;;17.63
80246;BMP280;69558;39.208;-77.226;2023-12-04T12:59:28;99612.16;;;17.64
80246;BMP280;69558;39.208;-77.226;2023-12-04T13:01:54;99604.06;;;17.65
80246;BMP280;69558;39.208;-77.226;2023-12-04T13:04:22;99610.13;;;17.66
80246;BMP280;69558;39.208;-77.226;2023-12-04T13:06:48;99613.38;;;17.61
80246;BMP280;69558;39.208;-77.226;2023-12-04T13:09:14;99613.59;;;17.66
80246;BMP280;69558;39.208;-77.226;2023-12-04T13:11:47;99616.22;;;17.66
80246;BMP280;69558;39.208;-77.226;2023-12-04T13:14:13;99628.47;;;17.66
80246;BMP280;69558;39.208;-77.226;2023-12-04T13:16:39;99610.13;;;17.66
80246;BMP280;69558;39.208;-77.226;2023-12-04T13:19:05;99614.78;;;17.64
80246;BMP280;69558;39.208;-77.226;2023-12-04T13:21:31;99623.44;;;17.64
80246;BMP280;69558;39.208;-77.226;2023-12-04T13:23:57;99624.06;;;17.66
80246;BMP280;69558;39.208;-77.226;2023-12-04T13:26:23;99627.69;;;17.65
80246;BMP280;69558;39.208;-77.226;2023-12-04T13:28:49;99631.09;;;17.66
80246;BMP280;69558;39.208;-77.226;2023-12-04T13:31:15;99617.19;;;17.65
80246;BMP280;69558;39.208;-77.226;2023-12-04T13:33:41;99624.06;;;17.66
80246;BMP280;69558;39.208;-77.226;2023-12-04T13:36:09;99632.75;;;17.67
80246;BMP280;69558;39.208;-77.226;2023-12-04T13:38:35;99633.16;;;17.64
80246;BMP280;69558;39.208;-77.226;2023-12-04T13:41:01;99627.91;;;17.64
80246;BMP280;69558;39.208;-77.226;2023-12-04T13:43:47;99626.88;;;17.65
80246;BMP280;69558;39.208;-77.226;2023-12-04T13:46:16;99647.03;;;17.64
80246;BMP280;69558;39.208;-77.226;2023-12-04T13:48:42;99650.69;;;17.63
80246;BMP280;69558;39.208;-77.226;2023-12-04T13:51:12;99670.63;;;17.64